Time;durP1;ratioP1;P1;durP2;ratioP2;P2;SDS_P1;SDS_P2;PMS_P1;PMS_P2;Temp;Humidity;BMP_temperature;BMP_pressure;BME280_temperature;BME280_humidity;BME280_pressure;Samples;Min_cycle;Max_cycle;Signal;HPM_P1;HPM_P2
2021/10/25 00:02:03;;;;;;;;;;;18.40;56.30;;;;;;5054368;28;19944;-56
2021/10/25 00:04:29;;;;;;;;;;;18.50;56.30;;;;;;5054695;28;19920;-56
2021/10/25 00:06:55;;;;;;;;;;;18.50;56.30;;;;;;5057729;28;19947;-57
2021/10/25 00:09:20;;;;;;;;;;;18.50;56.30;;;;;;5050146;28;19917;-56
2021/10/25 00:11:46;;;;;;;;;;;18.50;56.20;;;;;;5052620;28;19923;-54
2021/10/25 00:14:11;;;;;;;;;;;18.50;56.20;;;;;;5056785;28;20000;-57
2021/10/25 00:16:37;;;;;;;;;;;18.50;56.20;;;;;;5054119;28;20297;-56
2021/10/25 00:19:03;;;;;;;;;;;18.50;56.10;;;;;;5061921;28;19919;-54
2021/10/25 00:21:28;;;;;;;;;;;18.40;56.00;;;;;;5051840;28;19921;-55
2021/10/25 00:23:54;;;;;;;;;;;18.50;56.00;;;;;;5052589;28;19923;-57
2021/10/25 00:26:19;;;;;;;;;;;18.50;56.00;;;;;;5043950;28;20529;-55
2021/10/25 00:28:44;;;;;;;;;;;18.50;56.00;;;;;;5055564;28;19917;-59
2021/10/25 00:31:10;;;;;;;;;;;18.50;55.90;;;;;;5058125;28;19919;-56
2021/10/25 00:33:35;;;;;;;;;;;18.50;55.90;;;;;;5055398;28;19923;-57
2021/10/25 00:36:01;;;;;;;;;;;18.50;55.90;;;;;;5055905;28;19947;-58
2021/10/25 00:38:26;;;;;;;;;;;18.50;55.90;;;;;;5052025;28;19954;-57
2021/10/25 00:40:52;;;;;;;;;;;18.40;55.90;;;;;;5050125;28;19913;-56
2021/10/25 00:43:17;;;;;;;;;;;18.40;55.90;;;;;;5046589;28;20027;-54
2021/10/25 00:45:44;;;;;;;;;;;18.40;55.90;;;;;;5059360;28;19913;-58
2021/10/25 00:48:10;;;;;;;;;;;18.40;55.90;;;;;;5061357;28;20008;-62
2021/10/25 00:50:35;;;;;;;;;;;18.40;55.90;;;;;;5054674;28;19995;-57
2021/10/25 00:53:01;;;;;;;;;;;18.40;55.90;;;;;;5058647;28;19917;-56
2021/10/25 00:55:26;;;;;;;;;;;18.40;56.00;;;;;;5055392;28;20382;-53
2021/10/25 00:57:53;;;;;;;;;;;18.40;55.90;;;;;;5060121;28;19920;-55
2021/10/25 01:00:18;;;;;;;;;;;18.30;55.90;;;;;;5054875;28;19920;-54
2021/10/25 01:02:44;;;;;;;;;;;18.30;55.90;;;;;;5042700;28;19913;-58
2021/10/25 01:05:09;;;;;;;;;;;18.40;56.00;;;;;;5047089;28;19978;-53
2021/10/25 01:07:35;;;;;;;;;;;18.30;55.90;;;;;;5059611;28;20542;-56
2021/10/25 01:10:01;;;;;;;;;;;18.30;55.90;;;;;;5052116;28;19913;-57
2021/10/25 01:12:26;;;;;;;;;;;18.30;56.00;;;;;;5053267;28;19916;-57
2021/10/25 01:14:51;;;;;;;;;;;18.30;56.00;;;;;;5042125;28;20123;-57
2021/10/25 01:17:17;;;;;;;;;;;18.30;56.00;;;;;;5051990;28;19963;-56
2021/10/25 01:19:42;;;;;;;;;;;18.20;56.00;;;;;;5052846;28;19919;-56
2021/10/25 01:22:08;;;;;;;;;;;18.20;56.10;;;;;;5057898;28;20356;-53
2021/10/25 01:24:33;;;;;;;;;;;18.20;56.10;;;;;;5054582;28;20007;-57
2021/10/25 01:26:59;;;;;;;;;;;18.20;56.20;;;;;;5059879;28;19913;-57
2021/10/25 01:29:25;;;;;;;;;;;18.20;56.10;;;;;;5049553;28;19913;-57
2021/10/25 01:31:50;;;;;;;;;;;18.20;56.20;;;;;;5049363;28;19913;-57
2021/10/25 01:34:16;;;;;;;;;;;18.20;56.20;;;;;;5053072;28;19928;-53
2021/10/25 01:36:41;;;;;;;;;;;18.20;56.20;;;;;;5053995;28;20007;-56
2021/10/25 01:39:07;;;;;;;;;;;18.10;56.30;;;;;;5054354;28;19912;-57
2021/10/25 01:41:33;;;;;;;;;;;18.10;56.30;;;;;;5044685;28;20032;-57
2021/10/25 01:43:58;;;;;;;;;;;18.00;56.40;;;;;;5049754;28;19913;-53
2021/10/25 01:46:23;;;;;;;;;;;18.10;56.50;;;;;;5054788;28;19939;-55
2021/10/25 01:48:49;;;;;;;;;;;18.10;56.50;;;;;;5053300;28;19913;-56
2021/10/25 01:51:14;;;;;;;;;;;18.10;56.50;;;;;;5046763;28;19916;-56
2021/10/25 01:53:40;;;;;;;;;;;18.00;56.50;;;;;;5043893;28;19920;-56
2021/10/25 01:56:06;;;;;;;;;;;18.00;56.50;;;;;;5054095;28;19921;-56
2021/10/25 01:58:32;;;;;;;;;;;18.10;56.50;;;;;;5049871;28;19913;-56
2021/10/25 02:00:57;;;;;;;;;;;18.10;56.50;;;;;;5059789;28;19917;-57
2021/10/25 02:03:23;;;;;;;;;;;18.10;56.50;;;;;;5050983;28;19924;-54
2021/10/25 02:05:48;;;;;;;;;;;18.10;56.40;;;;;;5050436;28;19912;-56
2021/10/25 02:08:14;;;;;;;;;;;18.10;56.30;;;;;;5055178;28;19916;-54
2021/10/25 02:10:39;;;;;;;;;;;18.10;56.30;;;;;;5045473;28;19916;-54
2021/10/25 02:13:05;;;;;;;;;;;18.10;56.20;;;;;;5055031;28;19923;-53
2021/10/25 02:15:30;;;;;;;;;;;18.10;56.10;;;;;;5044616;28;19999;-56
2021/10/25 02:17:56;;;;;;;;;;;18.10;56.10;;;;;;5048570;28;19920;-55
2021/10/25 02:20:21;;;;;;;;;;;18.10;56.10;;;;;;5055160;28;19921;-55
2021/10/25 02:22:47;;;;;;;;;;;18.20;56.10;;;;;;5046997;28;19912;-54
2021/10/25 02:25:12;;;;;;;;;;;18.10;56.00;;;;;;5062132;28;20442;-57
2021/10/25 02:27:38;;;;;;;;;;;18.20;56.10;;;;;;5055303;28;20423;-56
2021/10/25 02:30:04;;;;;;;;;;;18.20;56.10;;;;;;5053506;28;19950;-53
2021/10/25 02:32:30;;;;;;;;;;;18.20;56.10;;;;;;5040667;28;19917;-56
2021/10/25 02:34:56;;;;;;;;;;;18.20;56.10;;;;;;5054892;28;20317;-57
2021/10/25 02:37:22;;;;;;;;;;;18.10;56.00;;;;;;5048927;28;19920;-58
2021/10/25 02:39:47;;;;;;;;;;;18.10;56.00;;;;;;5050033;28;20495;-57
2021/10/25 02:42:13;;;;;;;;;;;18.10;56.00;;;;;;5041253;28;19920;-56
2021/10/25 02:44:38;;;;;;;;;;;18.20;56.00;;;;;;5052295;28;19999;-57
2021/10/25 02:47:04;;;;;;;;;;;18.10;55.90;;;;;;5052658;28;19925;-56
2021/10/25 02:49:30;;;;;;;;;;;18.20;56.00;;;;;;5062049;28;19989;-53
2021/10/25 02:51:56;;;;;;;;;;;18.20;55.90;;;;;;5054749;28;20517;-56
2021/10/25 02:54:21;;;;;;;;;;;18.20;55.90;;;;;;5054338;28;19948;-56
2021/10/25 02:56:47;;;;;;;;;;;18.20;55.90;;;;;;5049264;28;19913;-58
2021/10/25 02:59:12;;;;;;;;;;;18.20;55.80;;;;;;5063077;28;20410;-57
2021/10/25 03:01:38;;;;;;;;;;;18.20;55.90;;;;;;5061718;28;19921;-55
2021/10/25 03:04:04;;;;;;;;;;;18.10;55.80;;;;;;5065075;28;19948;-55
2021/10/25 03:06:29;;;;;;;;;;;18.20;55.90;;;;;;5055438;28;19962;-54
2021/10/25 03:08:55;;;;;;;;;;;18.10;55.80;;;;;;5048617;28;19919;-58
2021/10/25 03:11:20;;;;;;;;;;;18.10;55.80;;;;;;5055987;28;19974;-55
2021/10/25 03:13:45;;;;;;;;;;;18.10;55.80;;;;;;5052385;28;19920;-55
2021/10/25 03:16:11;;;;;;;;;;;18.20;55.80;;;;;;5065006;28;19913;-56
2021/10/25 03:18:36;;;;;;;;;;;18.20;55.80;;;;;;5060254;28;19920;-53
2021/10/25 03:21:02;;;;;;;;;;;18.20;55.80;;;;;;5061735;28;19913;-53
2021/10/25 03:23:27;;;;;;;;;;;18.10;55.80;;;;;;5044083;28;19916;-56
2021/10/25 03:25:53;;;;;;;;;;;18.20;55.80;;;;;;5047397;28;19921;-55
2021/10/25 03:28:18;;;;;;;;;;;18.20;55.80;;;;;;5049519;28;20395;-54
2021/10/25 03:30:44;;;;;;;;;;;18.20;55.70;;;;;;5042377;28;19921;-58
2021/10/25 03:33:10;;;;;;;;;;;18.20;55.70;;;;;;5062235;28;19921;-57
2021/10/25 03:35:35;;;;;;;;;;;18.20;55.70;;;;;;5044432;28;19919;-56
2021/10/25 03:38:00;;;;;;;;;;;18.20;55.70;;;;;;5062224;28;19927;-58
2021/10/25 03:40:28;;;;;;;;;;;18.20;55.70;;;;;;5055838;28;19966;-56
2021/10/25 03:42:55;;;;;;;;;;;18.20;55.70;;;;;;5054586;28;19913;-54
2021/10/25 03:45:35;;;;;;;;;;;18.20;55.70;;;;;;5049213;28;19992;-58
2021/10/25 03:48:20;;;;;;;;;;;18.20;55.60;;;;;;5048067;28;20556;-58
2021/10/25 03:50:48;;;;;;;;;;;18.20;55.60;;;;;;5052473;28;19916;-56
2021/10/25 03:54:05;;;;;;;;;;;18.20;55.50;;;;;;5051049;28;19923;-58
2021/10/25 03:56:12;;;;;;;;;;;18.20;55.50;;;;;;5053643;28;19919;-53
2021/10/25 04:28:14;;;;;;;;;;;18.20;55.40;;;;;;5055703;28;19917;-54
2021/10/25 04:30:40;;;;;;;;;;;18.20;55.30;;;;;;5054511;28;19913;-56
2021/10/25 04:33:05;;;;;;;;;;;18.20;55.30;;;;;;5050206;28;19923;-57
2021/10/25 04:35:31;;;;;;;;;;;18.30;55.30;;;;;;5049749;28;19996;-53
2021/10/25 04:37:56;;;;;;;;;;;18.20;55.30;;;;;;5015556;23;19926;-58
2021/10/25 04:40:22;;;;;;;;;;;18.20;55.30;;;;;;5000783;28;19956;-58
2021/10/25 04:42:47;;;;;;;;;;;18.20;55.30;;;;;;5001199;28;19918;-56
2021/10/25 04:45:13;;;;;;;;;;;18.30;55.50;;;;;;5000119;28;19968;-56
2021/10/25 04:47:38;;;;;;;;;;;18.20;55.50;;;;;;5000209;28;19917;-57
2021/10/25 04:50:04;;;;;;;;;;;18.20;55.70;;;;;;5000842;28;19963;-60
2021/10/25 04:52:30;;;;;;;;;;;18.20;55.70;;;;;;4999748;28;19913;-59
2021/10/25 04:54:55;;;;;;;;;;;18.20;55.80;;;;;;5000223;28;19917;-60
2021/10/25 04:57:21;;;;;;;;;;;18.20;55.70;;;;;;5000529;28;19922;-58
2021/10/25 04:59:47;;;;;;;;;;;18.20;55.70;;;;;;4999980;28;20342;-60
2021/10/25 05:02:13;;;;;;;;;;;18.20;55.60;;;;;;4999828;28;20000;-60
2021/10/25 05:04:39;;;;;;;;;;;18.20;55.40;;;;;;4999941;28;20291;-57
2021/10/25 05:07:04;;;;;;;;;;;18.20;55.40;;;;;;4989394;28;19914;-59
2021/10/25 05:09:30;;;;;;;;;;;18.20;55.30;;;;;;4984274;28;19914;-60
2021/10/25 05:11:55;;;;;;;;;;;18.20;55.20;;;;;;4998567;28;19921;-57
2021/10/25 05:14:21;;;;;;;;;;;18.20;55.30;;;;;;4995822;28;19923;-59
2021/10/25 05:16:46;;;;;;;;;;;18.20;55.70;;;;;;4999294;28;19921;-59
2021/10/25 05:19:11;;;;;;;;;;;18.20;56.10;;;;;;5000128;28;20001;-59
2021/10/25 05:21:37;;;;;;;;;;;18.20;56.40;;;;;;4999690;28;19913;-58
2021/10/25 05:24:03;;;;;;;;;;;18.20;56.70;;;;;;4996955;28;19918;-58
2021/10/25 05:26:29;;;;;;;;;;;18.20;57.00;;;;;;5031362;23;19956;-52
2021/10/25 05:28:54;;;;;;;;;;;18.20;56.90;;;;;;5024261;28;20351;-55
2021/10/25 05:31:20;;;;;;;;;;;18.20;56.80;;;;;;5029305;28;19933;-55
2021/10/25 05:33:45;;;;;;;;;;;18.10;56.80;;;;;;5032737;28;19917;-54
2021/10/25 05:36:11;;;;;;;;;;;18.10;56.90;;;;;;5026105;28;19923;-56
2021/10/25 05:38:36;;;;;;;;;;;18.10;56.90;;;;;;5034392;28;19913;-54
2021/10/25 05:41:02;;;;;;;;;;;18.10;57.00;;;;;;5020304;28;19956;-56
2021/10/25 05:43:28;;;;;;;;;;;18.00;57.00;;;;;;5020799;28;20386;-53
2021/10/25 05:45:54;;;;;;;;;;;18.00;57.00;;;;;;5031330;28;20640;-56
2021/10/25 05:48:20;;;;;;;;;;;18.00;56.90;;;;;;5033184;28;19919;-55
2021/10/25 05:50:46;;;;;;;;;;;18.00;56.90;;;;;;5042338;28;19931;-56
2021/10/25 05:53:11;;;;;;;;;;;17.90;56.80;;;;;;5008936;28;20478;-56
2021/10/25 05:55:38;;;;;;;;;;;17.90;56.90;;;;;;5035102;28;19913;-56
2021/10/25 05:58:05;;;;;;;;;;;17.90;56.90;;;;;;5035350;28;19913;-56
2021/10/25 06:00:35;;;;;;;;;;;17.80;56.90;;;;;;5027149;28;19920;-56
2021/10/25 06:03:00;;;;;;;;;;;17.90;56.90;;;;;;5042682;28;19913;-54
2021/10/25 06:05:27;;;;;;;;;;;17.80;56.90;;;;;;5027759;28;19912;-52
2021/10/25 06:07:53;;;;;;;;;;;17.80;56.90;;;;;;5033436;28;20183;-57
2021/10/25 06:10:18;;;;;;;;;;;17.80;56.90;;;;;;5033283;28;20741;-55
2021/10/25 06:12:47;;;;;;;;;;;17.80;56.90;;;;;;5025812;28;19920;-55
2021/10/25 06:15:16;;;;;;;;;;;17.80;56.90;;;;;;5030372;28;19920;-55
2021/10/25 06:17:55;;;;;;;;;;;17.80;56.90;;;;;;5034491;28;19920;-52
2021/10/25 06:20:21;;;;;;;;;;;17.80;56.90;;;;;;5032392;28;19913;-54
2021/10/25 06:22:47;;;;;;;;;;;17.80;56.90;;;;;;5034716;28;20578;-52
2021/10/25 06:25:13;;;;;;;;;;;17.80;57.00;;;;;;5041929;28;19921;-55
2021/10/25 06:27:40;;;;;;;;;;;17.80;56.90;;;;;;5038337;28;20378;-54
2021/10/25 06:30:05;;;;;;;;;;;17.90;56.90;;;;;;5034437;28;19913;-55
2021/10/25 06:32:31;;;;;;;;;;;17.90;56.80;;;;;;5038100;28;20052;-53
2021/10/25 06:34:59;;;;;;;;;;;17.90;56.80;;;;;;5031296;28;19921;-55
2021/10/25 06:37:31;;;;;;;;;;;17.90;56.80;;;;;;5041788;28;20286;-55
2021/10/25 06:39:57;;;;;;;;;;;18.00;56.70;;;;;;5030515;28;19917;-57
2021/10/25 06:42:25;;;;;;;;;;;18.00;56.60;;;;;;5026210;28;19959;-55
2021/10/25 06:44:53;;;;;;;;;;;18.10;56.60;;;;;;5031217;28;20314;-54
2021/10/25 06:47:20;;;;;;;;;;;18.10;56.50;;;;;;5032816;28;19920;-53
2021/10/25 06:49:46;;;;;;;;;;;18.10;56.50;;;;;;5034224;28;19922;-54
2021/10/25 06:52:11;;;;;;;;;;;18.10;56.40;;;;;;5041386;28;19974;-56
2021/10/25 06:54:37;;;;;;;;;;;18.20;56.40;;;;;;5034197;28;20495;-55
2021/10/25 06:57:02;;;;;;;;;;;18.10;56.40;;;;;;5030864;28;19913;-56
2021/10/25 06:59:28;;;;;;;;;;;18.20;56.40;;;;;;5031927;28;19921;-55
2021/10/25 07:01:54;;;;;;;;;;;18.20;56.40;;;;;;5036080;28;20483;-55
2021/10/25 07:04:20;;;;;;;;;;;18.20;56.30;;;;;;5035112;28;19913;-54
2021/10/25 07:06:46;;;;;;;;;;;18.20;56.30;;;;;;5033852;28;19925;-50
2021/10/25 07:09:11;;;;;;;;;;;18.30;56.40;;;;;;5044647;28;20420;-52
2021/10/25 07:11:42;;;;;;;;;;;18.20;56.30;;;;;;5028889;28;20286;-52
2021/10/25 07:14:08;;;;;;;;;;;18.30;56.30;;;;;;5032592;28;19923;-52
2021/10/25 07:16:46;;;;;;;;;;;18.30;56.30;;;;;;5026643;28;19913;-54
2021/10/25 07:21:54;;;;;;;;;;;18.30;56.30;;;;;;5041044;28;19914;-55
2021/10/25 07:59:52;;;;;;;;;;;18.30;56.50;;;;;;5013459;28;20062;-50
2021/10/25 08:10:11;;;;;;;;;;;18.20;56.50;;;;;;5022592;28;19913;-54
2021/10/25 08:12:44;;;;;;;;;;;18.20;56.50;;;;;;5013090;28;19970;-54
2021/10/25 08:15:16;;;;;;;;;;;18.30;56.60;;;;;;5014210;28;20004;-56
2021/10/25 08:17:45;;;;;;;;;;;18.30;56.60;;;;;;5015171;28;20237;-51
2021/10/25 08:20:10;;;;;;;;;;;18.30;56.60;;;;;;5005563;28;19920;-52
2021/10/25 08:22:37;;;;;;;;;;;18.30;56.60;;;;;;5018322;28;19913;-54
2021/10/25 08:25:03;;;;;;;;;;;18.30;56.60;;;;;;5002322;28;19936;-51
2021/10/25 08:27:29;;;;;;;;;;;18.20;57.10;;;;;;5013198;28;19921;-52
2021/10/25 08:29:54;;;;;;;;;;;18.20;56.50;;;;;;5023613;28;19917;-57
2021/10/25 08:39:58;;;;;;;;;;;18.30;56.50;;;;;;5010384;28;19999;-55
2021/10/25 08:42:30;;;;;;;;;;;18.20;56.50;;;;;;5009965;28;19970;-55
2021/10/25 08:44:59;;;;;;;;;;;18.20;56.50;;;;;;5008468;28;19913;-57
2021/10/25 08:47:28;;;;;;;;;;;18.20;56.50;;;;;;5006231;28;19991;-57
2021/10/25 08:49:54;;;;;;;;;;;18.30;56.60;;;;;;5007704;28;19918;-55
2021/10/25 08:52:20;;;;;;;;;;;18.30;56.60;;;;;;5015991;28;19913;-56
2021/10/25 08:54:47;;;;;;;;;;;18.20;56.60;;;;;;5010013;28;19917;-57
2021/10/25 08:57:13;;;;;;;;;;;18.20;56.50;;;;;;5013587;28;20399;-56
2021/10/25 08:59:39;;;;;;;;;;;18.20;56.60;;;;;;5017677;28;19913;-56
2021/10/25 09:02:08;;;;;;;;;;;18.20;56.60;;;;;;5010058;28;19920;-56
2021/10/25 09:04:33;;;;;;;;;;;18.20;56.60;;;;;;5019653;28;20464;-56
2021/10/25 09:06:59;;;;;;;;;;;18.20;56.60;;;;;;5033157;28;19913;-55
2021/10/25 09:09:28;;;;;;;;;;;18.20;56.60;;;;;;5033365;28;20645;-51
2021/10/25 09:12:08;;;;;;;;;;;18.20;56.60;;;;;;5012095;28;20063;-51
2021/10/25 09:14:34;;;;;;;;;;;18.20;56.60;;;;;;5013184;28;19956;-57
2021/10/25 09:17:00;;;;;;;;;;;18.20;56.60;;;;;;5004679;28;20391;-56
2021/10/25 09:19:28;;;;;;;;;;;18.20;56.70;;;;;;5009288;28;19937;-58
2021/10/25 09:22:02;;;;;;;;;;;18.20;56.60;;;;;;5024492;28;20546;-55
2021/10/25 09:24:27;;;;;;;;;;;18.20;56.70;;;;;;5030608;28;19917;-58
2021/10/25 09:26:57;;;;;;;;;;;18.20;56.60;;;;;;5022484;28;19985;-54
2021/10/25 09:29:23;;;;;;;;;;;18.20;56.70;;;;;;5031385;28;19913;-57
2021/10/25 09:31:52;;;;;;;;;;;18.20;56.70;;;;;;5038364;28;19962;-56
2021/10/25 09:34:17;;;;;;;;;;;18.10;56.70;;;;;;5037124;28;20015;-53
2021/10/25 09:36:51;;;;;;;;;;;18.10;56.60;;;;;;5032656;28;19920;-54
2021/10/25 09:39:25;;;;;;;;;;;18.10;56.70;;;;;;5032100;28;20387;-58
2021/10/25 09:49:58;;;;;;;;;;;18.10;56.70;;;;;;5034072;28;19919;-56
2021/10/25 09:52:27;;;;;;;;;;;18.10;56.80;;;;;;5021100;28;20024;-56
2021/10/25 09:55:00;;;;;;;;;;;18.10;56.80;;;;;;5008225;28;20370;-55
2021/10/25 09:57:34;;;;;;;;;;;18.10;56.70;;;;;;5018929;28;20608;-55
2021/10/25 09:59:59;;;;;;;;;;;18.10;56.70;;;;;;5019749;28;20433;-56
2021/10/25 10:02:25;;;;;;;;;;;18.10;56.80;;;;;;5023830;28;19984;-57
2021/10/25 10:04:57;;;;;;;;;;;18.10;56.80;;;;;;5013316;28;19913;-52
2021/10/25 10:07:23;;;;;;;;;;;18.10;56.80;;;;;;5009248;28;19925;-57
2021/10/25 10:09:49;;;;;;;;;;;18.10;56.90;;;;;;5014307;28;20262;-55
2021/10/25 10:12:18;;;;;;;;;;;18.00;56.90;;;;;;5005761;28;20457;-55
2021/10/25 10:14:46;;;;;;;;;;;18.00;56.90;;;;;;5014641;28;20004;-57
2021/10/25 10:17:12;;;;;;;;;;;18.00;57.00;;;;;;5008265;28;19968;-53
2021/10/25 10:19:38;;;;;;;;;;;18.00;57.00;;;;;;5005416;28;19917;-53
2021/10/25 10:22:03;;;;;;;;;;;18.00;57.00;;;;;;5005028;28;19964;-54
2021/10/25 10:24:34;;;;;;;;;;;18.00;57.00;;;;;;5020297;28;19917;-55
2021/10/25 10:27:00;;;;;;;;;;;18.00;57.10;;;;;;5011692;28;20404;-56
2021/10/25 10:29:25;;;;;;;;;;;18.00;57.10;;;;;;5021166;28;19944;-55
2021/10/25 10:32:00;;;;;;;;;;;18.00;57.10;;;;;;5014930;28;19924;-54
2021/10/25 10:34:25;;;;;;;;;;;18.00;57.20;;;;;;5008801;28;20004;-56
2021/10/25 10:36:54;;;;;;;;;;;18.00;57.20;;;;;;5004803;28;19914;-56
2021/10/25 10:39:19;;;;;;;;;;;18.00;57.30;;;;;;5025302;28;20378;-57
2021/10/25 10:41:52;;;;;;;;;;;18.00;57.30;;;;;;5016507;28;19920;-54
2021/10/25 10:44:18;;;;;;;;;;;17.90;57.30;;;;;;5013018;28;19952;-58
2021/10/25 10:46:52;;;;;;;;;;;17.90;57.30;;;;;;5012042;28;19992;-53
2021/10/25 10:49:18;;;;;;;;;;;17.90;57.40;;;;;;5013376;28;19960;-54
2021/10/25 10:51:44;;;;;;;;;;;17.90;57.40;;;;;;5013324;28;19913;-55
2021/10/25 10:54:20;;;;;;;;;;;17.90;57.50;;;;;;5022607;28;20258;-55
2021/10/25 10:56:58;;;;;;;;;;;17.90;57.40;;;;;;5023999;28;19920;-55
2021/10/25 10:59:33;;;;;;;;;;;17.90;57.50;;;;;;5014368;28;19924;-53
2021/10/25 11:01:59;;;;;;;;;;;17.90;57.30;;;;;;5005365;28;20015;-54
2021/10/25 11:04:29;;;;;;;;;;;17.90;57.30;;;;;;5008993;28;19974;-56
2021/10/25 11:07:01;;;;;;;;;;;18.00;57.40;;;;;;5012897;28;19956;-54
2021/10/25 11:09:30;;;;;;;;;;;17.90;57.30;;;;;;5012095;28;19914;-56
2021/10/25 11:12:00;;;;;;;;;;;17.90;57.20;;;;;;5017924;28;20327;-53
2021/10/25 11:14:29;;;;;;;;;;;18.00;57.20;;;;;;5008625;28;20306;-53
2021/10/25 11:17:21;;;;;;;;;;;18.00;57.20;;;;;;5003974;28;19949;-53
2021/10/25 11:19:50;;;;;;;;;;;18.00;57.20;;;;;;5012940;28;19996;-54
2021/10/25 11:22:32;;;;;;;;;;;18.00;57.10;;;;;;5010928;28;20000;-57
2021/10/25 11:24:58;;;;;;;;;;;18.00;57.10;;;;;;5008895;28;19925;-56
2021/10/25 11:27:30;;;;;;;;;;;18.00;57.00;;;;;;5012545;28;19927;-52
2021/10/25 11:30:03;;;;;;;;;;;18.10;57.10;;;;;;5009587;28;20409;-57
2021/10/25 11:32:28;;;;;;;;;;;18.10;57.00;;;;;;5017356;28;20305;-54
2021/10/25 11:34:55;;;;;;;;;;;18.10;57.00;;;;;;5009070;28;19925;-54
2021/10/25 11:37:20;;;;;;;;;;;18.10;57.00;;;;;;5016901;28;19917;-54
2021/10/25 11:39:50;;;;;;;;;;;18.10;57.00;;;;;;5014161;28;20379;-55
2021/10/25 11:42:22;;;;;;;;;;;18.10;57.00;;;;;;5011070;28;19917;-52
2021/10/25 11:44:51;;;;;;;;;;;18.10;57.00;;;;;;5006600;28;19914;-52
2021/10/25 11:47:24;;;;;;;;;;;18.10;57.00;;;;;;5012470;28;19972;-56
2021/10/25 11:49:50;;;;;;;;;;;18.20;57.00;;;;;;5019217;28;19924;-55
2021/10/25 11:52:16;;;;;;;;;;;18.20;57.00;;;;;;5010281;28;19913;-56
2021/10/25 11:54:53;;;;;;;;;;;18.20;57.00;;;;;;5019574;28;20062;-55
2021/10/25 11:57:19;;;;;;;;;;;18.20;57.60;;;;;;5026781;28;19936;-58
2021/10/25 11:59:55;;;;;;;;;;;18.10;57.00;;;;;;5030880;28;20305;-54
2021/10/25 12:02:22;;;;;;;;;;;18.20;57.00;;;;;;5034029;28;19924;-57
2021/10/25 12:04:47;;;;;;;;;;;18.20;57.00;;;;;;5039185;28;19952;-52
2021/10/25 12:07:13;;;;;;;;;;;18.20;57.00;;;;;;5043260;28;19966;-58
2021/10/25 12:09:38;;;;;;;;;;;18.20;57.00;;;;;;5034871;28;20592;-57
2021/10/25 12:12:06;;;;;;;;;;;18.20;57.00;;;;;;5039720;28;19955;-54
2021/10/25 12:14:35;;;;;;;;;;;18.20;57.00;;;;;;5030952;28;19955;-55
2021/10/25 12:17:01;;;;;;;;;;;18.20;57.00;;;;;;5028216;28;20489;-57
2021/10/25 12:19:29;;;;;;;;;;;18.20;57.00;;;;;;5016149;28;19913;-53
2021/10/25 12:21:55;;;;;;;;;;;18.20;57.00;;;;;;5026559;28;20276;-55
2021/10/25 12:24:22;;;;;;;;;;;18.20;57.00;;;;;;5030072;28;19921;-53
2021/10/25 12:26:57;;;;;;;;;;;18.20;57.00;;;;;;5034817;28;19921;-56
2021/10/25 12:29:23;;;;;;;;;;;18.20;57.00;;;;;;5025676;28;19920;-55
2021/10/25 12:31:49;;;;;;;;;;;18.20;57.00;;;;;;5030659;28;19913;-53
2021/10/25 12:34:15;;;;;;;;;;;18.20;57.10;;;;;;5030400;28;20349;-58
2021/10/25 12:36:42;;;;;;;;;;;18.20;57.00;;;;;;5042640;28;20008;-57
2021/10/25 12:39:08;;;;;;;;;;;18.20;57.00;;;;;;5031900;28;19913;-54
2021/10/25 12:41:57;;;;;;;;;;;18.20;57.10;;;;;;5034468;28;20613;-57
2021/10/25 12:44:32;;;;;;;;;;;18.20;57.10;;;;;;5033529;28;19963;-57
2021/10/25 12:47:05;;;;;;;;;;;18.20;57.10;;;;;;5026366;28;19953;-55
2021/10/25 12:49:30;;;;;;;;;;;18.20;57.00;;;;;;5038478;28;20522;-52
2021/10/25 12:52:01;;;;;;;;;;;18.20;57.00;;;;;;5035241;28;19920;-52
2021/10/25 12:54:26;;;;;;;;;;;18.20;57.10;;;;;;5029956;28;20000;-52
2021/10/25 12:56:52;;;;;;;;;;;18.20;57.10;;;;;;5029483;28;20329;-56
2021/10/25 12:59:20;;;;;;;;;;;18.20;57.10;;;;;;5031252;28;19919;-56
2021/10/25 13:01:52;;;;;;;;;;;18.20;57.10;;;;;;5031642;28;19935;-52
2021/10/25 13:04:18;;;;;;;;;;;18.20;57.10;;;;;;5029516;28;19913;-53
2021/10/25 13:06:44;;;;;;;;;;;18.20;57.10;;;;;;5032937;28;20004;-53
2021/10/25 13:09:10;;;;;;;;;;;18.20;57.10;;;;;;5036211;28;19913;-55
2021/10/25 13:11:36;;;;;;;;;;;18.20;57.10;;;;;;5034079;28;19913;-52
2021/10/25 13:14:01;;;;;;;;;;;18.20;57.10;;;;;;5022972;28;19927;-62
2021/10/25 13:16:30;;;;;;;;;;;18.20;57.10;;;;;;5033917;28;19948;-54
2021/10/25 13:18:56;;;;;;;;;;;18.20;57.10;;;;;;5042544;28;19983;-52
2021/10/25 13:21:22;;;;;;;;;;;18.20;57.10;;;;;;5040548;28;20023;-58
2021/10/25 13:23:47;;;;;;;;;;;18.20;57.10;;;;;;5022775;28;19920;-56
2021/10/25 13:26:13;;;;;;;;;;;18.20;57.10;;;;;;5036664;28;19921;-58
2021/10/25 13:28:40;;;;;;;;;;;18.20;57.10;;;;;;5033396;28;19920;-55
2021/10/25 13:31:06;;;;;;;;;;;18.20;57.10;;;;;;5024639;28;19921;-56
2021/10/25 13:33:34;;;;;;;;;;;18.20;57.10;;;;;;5026368;28;19917;-54
2021/10/25 13:36:00;;;;;;;;;;;18.20;57.10;;;;;;5038839;28;19917;-52
2021/10/25 13:38:26;;;;;;;;;;;18.20;57.20;;;;;;5029360;28;20260;-56
2021/10/25 13:40:51;;;;;;;;;;;18.20;57.20;;;;;;5021841;28;20874;-54
2021/10/25 13:43:17;;;;;;;;;;;18.20;57.10;;;;;;5030510;28;19914;-53
2021/10/25 13:45:45;;;;;;;;;;;18.20;57.10;;;;;;5031309;28;20542;-52
2021/10/25 13:48:11;;;;;;;;;;;18.20;57.10;;;;;;5035886;28;19913;-53
2021/10/25 13:50:37;;;;;;;;;;;18.20;57.10;;;;;;5032273;28;19939;-55
2021/10/25 13:53:02;;;;;;;;;;;18.20;57.80;;;;;;5030774;28;19913;-58
2021/10/25 13:55:28;;;;;;;;;;;18.20;57.10;;;;;;5028589;28;19913;-57
2021/10/25 13:57:54;;;;;;;;;;;18.20;57.10;;;;;;5036724;28;19913;-57
2021/10/25 14:00:19;;;;;;;;;;;18.20;57.20;;;;;;5033754;28;19917;-54
2021/10/25 14:02:45;;;;;;;;;;;18.20;57.20;;;;;;5034899;28;19922;-56
2021/10/25 14:05:12;;;;;;;;;;;18.20;57.20;;;;;;5026146;28;20012;-54
2021/10/25 14:07:37;;;;;;;;;;;18.20;57.20;;;;;;5033821;28;19936;-55
2021/10/25 14:10:07;;;;;;;;;;;18.20;57.20;;;;;;5031789;28;20009;-53
2021/10/25 14:12:34;;;;;;;;;;;18.10;57.20;;;;;;5021685;28;19913;-57
2021/10/25 14:17:54;;;;;;;;;;;18.10;57.20;;;;;;5007819;28;19917;-55
2021/10/25 14:20:20;;;;;;;;;;;18.10;57.30;;;;;;5040059;28;20465;-57
2021/10/25 14:22:46;;;;;;;;;;;18.10;57.30;;;;;;5026453;28;19917;-55
2021/10/25 14:25:12;;;;;;;;;;;18.10;57.30;;;;;;5029274;28;19917;-55
2021/10/25 14:27:38;;;;;;;;;;;18.10;57.40;;;;;;5040703;28;19939;-53
2021/10/25 14:30:03;;;;;;;;;;;18.10;57.40;;;;;;5036765;28;20070;-51
2021/10/25 14:32:30;;;;;;;;;;;18.10;57.40;;;;;;5037272;28;20011;-54
2021/10/25 14:34:55;;;;;;;;;;;18.10;57.40;;;;;;5026339;28;20366;-55
2021/10/25 14:37:28;;;;;;;;;;;18.10;57.40;;;;;;5041210;28;19920;-55
2021/10/25 14:39:53;;;;;;;;;;;18.00;57.50;;;;;;5039003;28;19970;-55
2021/10/25 14:42:27;;;;;;;;;;;18.00;57.50;;;;;;5038993;28;19913;-56
2021/10/25 14:48:12;;;;;;;;;;;18.00;57.50;;;;;;5033264;28;19996;-55
2021/10/25 14:53:22;;;;;;;;;;;18.00;57.50;;;;;;5039852;28;20572;-57
2021/10/25 14:58:22;;;;;;;;;;;18.00;57.60;;;;;;5035975;28;20006;-53
2021/10/25 15:00:48;;;;;;;;;;;18.00;57.60;;;;;;5012082;28;19945;-57
2021/10/25 15:03:13;;;;;;;;;;;18.00;57.60;;;;;;5023378;28;19924;-51
2021/10/25 15:05:40;;;;;;;;;;;18.00;57.60;;;;;;5036931;28;19924;-52
2021/10/25 15:08:06;;;;;;;;;;;18.00;57.60;;;;;;5037021;28;19913;-62
2021/10/25 15:10:31;;;;;;;;;;;18.00;57.60;;;;;;5045075;28;20534;-57
2021/10/25 15:12:57;;;;;;;;;;;18.00;57.60;;;;;;5035604;28;20354;-56
2021/10/25 15:15:22;;;;;;;;;;;18.00;57.60;;;;;;5044211;28;19920;-54
2021/10/25 15:17:48;;;;;;;;;;;18.00;57.60;;;;;;5043775;28;19920;-52
2021/10/25 15:20:14;;;;;;;;;;;18.00;57.60;;;;;;5035432;28;20192;-51
2021/10/25 15:22:40;;;;;;;;;;;18.00;57.60;;;;;;5032780;28;19983;-53
2021/10/25 15:25:07;;;;;;;;;;;18.00;57.60;;;;;;5024950;28;19962;-53
2021/10/25 15:27:32;;;;;;;;;;;18.00;57.60;;;;;;5006373;28;20356;-56
2021/10/25 15:29:58;;;;;;;;;;;18.00;57.60;;;;;;5022909;28;19914;-54
2021/10/25 15:32:27;;;;;;;;;;;18.00;57.60;;;;;;5015565;28;20039;-55
2021/10/25 15:34:53;;;;;;;;;;;18.00;57.60;;;;;;5019503;28;20007;-55
2021/10/25 15:37:20;;;;;;;;;;;18.00;57.60;;;;;;5013739;28;20044;-58
2021/10/25 15:39:45;;;;;;;;;;;18.00;57.60;;;;;;5015267;28;19914;-55
2021/10/25 15:42:12;;;;;;;;;;;18.00;57.60;;;;;;5012749;28;19914;-54
2021/10/25 15:44:42;;;;;;;;;;;18.00;57.60;;;;;;5012528;28;19924;-56
2021/10/25 15:47:08;;;;;;;;;;;18.00;57.60;;;;;;5007316;28;20429;-54
2021/10/25 15:49:33;;;;;;;;;;;18.00;57.60;;;;;;5013536;28;19917;-58
2021/10/25 15:51:59;;;;;;;;;;;18.00;57.60;;;;;;5012053;28;20307;-58
2021/10/25 15:54:25;;;;;;;;;;;18.00;57.60;;;;;;5023734;28;19924;-58
2021/10/25 15:56:51;;;;;;;;;;;18.00;57.60;;;;;;5018702;28;19913;-55
2021/10/25 15:59:17;;;;;;;;;;;18.00;57.60;;;;;;5014757;28;20007;-58